Airfield :
LOGIN :

Register | Disclaimer

   EN    FR    IT 

 










Legend :    VFR   Marginal VFR   IFR   Intensive IFR   Very Intensive IFR
Visi :
Ceiling :
>= 8 km
>= 3000ft
5 to 8 km
1000 to 3000 ft
1500m to 5 km
500 to 1000 ft
800 to 1500m
200 to 500 ft
< 800m
< 200 ft
Symbols :   Thunderstorms  Fog  Heavy snow  Heavy precipitations  Wind > 20 kt
SIGMETs :     Misc.  Thunderstorms  Icing  Turbulence  Mountain Waves  Volcanic Ashes







- Airport Elevation : 333 ft


LIPL - Ghedi Brescia (Mil)

CURRENT METAR :
  • 151655Z 12005KT 6000 FEW040 19/13 Q1019 RMK SCT VIS MIN 6000 WIND THR31 12005KT WIND THR13 12005KT WHT

EXPIRED METARs :
  • 151555Z 13008KT 6000 FEW040 21/14 Q1018 RMK SCT VIS MIN 6000 WIND THR31 15008KT WIND THR13 12006KT WHT
  • 151455Z 11013KT 9999 FEW034 22/13 Q1018 RMK SCT VIS MIN 9999 WIND THR31 11012KT WIND THR13 11014KT BLU

TAF TAF LIPL
Valid from the 15 at 15:00 until the 16 at 00:00 UTC


151400Z 1515/1524 12012KT 9999 FEW030 SCT070
BECMG 1518/1520 04003KT 4000 BR
No reported NOTAMs for that airfield.



MET'MAP, your aeronautical weather chart ! - Copyright ORBIFLY December 2007 - Disclaimer

ORBIFLY MET'MAP TEAM :

Programming & Development : Alexandra Zaïnal
Concept & Development : Baudouin d'Aumeries
Co-Development & Prog : Marc-Olivier Méhu
Technical & hardware support : Manuel Goepfert

Contact : metmap@orbifly.com




SOURCES & CREDITS :

   NOAA